This is the latest recevied weather packets stored in our database for station/object VA3XLC. If no packets are shown the sender has not sent any weather packets the latest 10 day(s).
| Time | Temp. | Humidity | Pressure | Rain* | Wind** | Luminosity | Snow |
|---|---|---|---|---|---|---|---|
| 1777393812 | 15° C | 80% | 976.7 hPa | - | - | 426 W/m² | - |
| 1777391968 | 13.89° C | 85% | 976.9 hPa | - | - | 315 W/m² | - |
| 1777391367 | 13.89° C | 83% | 976.8 hPa | - | - | 319 W/m² | - |
| 1777388343 | 13.33° C | 87% | 976.6 hPa | - | - | 203 W/m² | - |
| 1777387742 | 12.78° C | 88% | 976.5 hPa | - | - | 145 W/m² | - |
| 1777386821 | 12.22° C | 91% | 976.5 hPa | - | - | 139 W/m² | - |
| 1777385298 | 11.67° C | 92% | 976.3 hPa | - | - | 133 W/m² | - |
| 1777384076 | 12.22° C | 91% | 976.3 hPa | - | - | 89 W/m² | - |
| 1777381028 | 12.22° C | 90% | 976.1 hPa | - | - | 28 W/m² | - |
| 1777380127 | 12.22° C | 89% | 975.9 hPa | - | - | 21 W/m² | - |
| 1777379526 | 12.22° C | 87% | 975.9 hPa | - | - | 20 W/m² | - |
| 1777378004 | 12.78° C | 77% | 975.7 hPa | - | - | 11 W/m² | - |
| 1777377704 | 13.33° C | 76% | 975.6 hPa | - | - | 8 W/m² | - |
| 1777376482 | 13.33° C | 74% | 975.6 hPa | - | - | 17 W/m² | - |
| 1777373738 | 13.33° C | 72% | 975.1 hPa | - | - | 5 W/m² | - |
| 1777372816 | 13.33° C | 74% | 975 hPa | - | - | 3 W/m² | - |
| 1777370371 | 13.33° C | 75% | 975 hPa | - | - | 0 W/m² | - |
| 1777366083 | 15.56° C | 57% | 974.5 hPa | - | - | 0 W/m² | - |
| 1777365460 | 15.56° C | 56% | 974.5 hPa | - | - | 0 W/m² | - |
| 1777364559 | 15.56° C | 55% | 975 hPa | - | - | 0 W/m² | - |
| 1777364258 | 15.56° C | 55% | 975.1 hPa | - | - | 0 W/m² | - |
| 1777362415 | 15.56° C | 55% | 975.4 hPa | - | - | 0 W/m² | - |
| 1777361815 | 15.56° C | 55% | 975.5 hPa | - | - | 0 W/m² | - |
| 1777358770 | 16.11° C | 51% | 976.5 hPa | - | - | 0 W/m² | - |
| 1777357247 | 16.11° C | 48% | 976.6 hPa | - | - | 0 W/m² | - |
* Rain since midnight (hover to see other rain measurements)
** Current wind speed in m/s (hover to see current wind gust speed)